Time;durP1;ratioP1;P1;durP2;ratioP2;P2;SDS_P1;SDS_P2;PMS_P1;PMS_P2;Temp;Humidity;BMP_temperature;BMP_pressure;BME280_temperature;BME280_humidity;BME280_pressure;Samples;Min_cycle;Max_cycle;Signal;HPM_P1;HPM_P2
2021/01/14 00:00:41;;;;;;;2.47;1.67;;;;;;;-1.96;95.59;99596.84;5006789;28;20297;-70
2021/01/14 00:03:09;;;;;;;2.13;1.70;;;;;;;-2.00;95.89;99594.25;5006501;28;20296;-71
2021/01/14 00:05:35;;;;;;;3.40;1.80;;;;;;;-2.01;96.75;99595.09;5006373;28;20207;-71
2021/01/14 00:08:01;;;;;;;1.43;1.27;;;;;;;-2.04;96.27;99602.72;5005929;28;20290;-71
2021/01/14 00:10:27;;;;;;;2.03;1.60;;;;;;;-2.08;97.31;99603.53;5004608;28;20217;-70
2021/01/14 00:12:54;;;;;;;3.83;1.90;;;;;;;-2.14;98.27;99599.25;5005816;28;20209;-71
2021/01/14 00:15:21;;;;;;;3.83;1.90;;;;;;;-2.17;99.74;99592.41;5006978;28;20204;-71
2021/01/14 00:17:47;;;;;;;2.10;1.60;;;;;;;-2.22;100.00;99594.03;5005136;28;20287;-71
2021/01/14 00:20:15;;;;;;;1.83;1.60;;;;;;;-2.28;100.00;99581.25;5008337;28;20625;-72
2021/01/14 00:22:41;;;;;;;3.73;1.90;;;;;;;-2.30;100.00;99582.94;5004724;28;20763;-71
2021/01/14 00:25:09;;;;;;;2.23;1.50;;;;;;;-2.32;100.00;99582.91;5007171;28;20196;-71
2021/01/14 00:27:35;;;;;;;1.97;1.77;;;;;;;-2.34;100.00;99584.59;5008939;28;20240;-70
2021/01/14 00:30:06;;;;;;;2.03;1.83;;;;;;;-2.35;100.00;99582.88;5007608;28;20220;-70
2021/01/14 00:32:31;;;;;;;2.53;1.87;;;;;;;-2.36;100.00;99587.97;5003685;28;20763;-71
2021/01/14 00:34:57;;;;;;;2.10;1.77;;;;;;;-2.37;100.00;99583.72;4997412;28;20393;-71
2021/01/14 00:40:09;;;;;;;1.80;1.70;;;;;;;-2.41;100.00;99576.84;5003116;28;20224;-72
2021/01/14 00:42:35;;;;;;;2.47;1.70;;;;;;;-2.40;100.00;99579.41;5005339;28;20666;-71
2021/01/14 00:45:02;;;;;;;2.73;1.80;;;;;;;-2.39;100.00;99575.16;5007244;28;20204;-72
2021/01/14 00:47:33;;;;;;;3.10;2.00;;;;;;;-2.41;100.00;99582.81;5004136;28;20200;-70
2021/01/14 00:49:59;;;;;;;2.80;2.13;;;;;;;-2.42;100.00;99577.69;5005508;28;20212;-71
2021/01/14 00:52:25;;;;;;;2.57;1.93;;;;;;;-2.41;100.00;99587.06;5002736;28;20283;-72
2021/01/14 00:54:51;;;;;;;2.77;2.03;;;;;;;-2.43;100.00;99579.38;5001896;28;20193;-72
2021/01/14 00:57:17;;;;;;;2.60;2.40;;;;;;;-2.43;100.00;99587.03;5005197;28;20633;-71
2021/01/14 00:59:43;;;;;;;4.63;3.00;;;;;;;-2.44;100.00;99585.34;5004176;28;20682;-71
2021/01/14 01:02:12;;;;;;;2.97;2.13;;;;;;;-2.43;100.00;99583.63;5007577;28;20201;-71
2021/01/14 01:04:38;;;;;;;3.13;2.83;;;;;;;-2.43;100.00;99589.59;5003752;28;20539;-70
2021/01/14 01:07:06;;;;;;;2.97;2.50;;;;;;;-2.44;100.00;99593.00;5005805;28;20207;-71
2021/01/14 01:09:31;;;;;;;5.67;2.30;;;;;;;-2.43;100.00;99588.75;5007448;28;20219;-71
2021/01/14 01:11:57;;;;;;;4.30;2.70;;;;;;;-2.44;100.00;99582.78;5002139;28;20789;-72
2021/01/14 01:14:23;;;;;;;3.60;2.80;;;;;;;-2.42;100.00;99588.75;5006312;28;20200;-72
2021/01/14 01:16:53;;;;;;;3.47;2.20;;;;;;;-2.40;100.00;99587.06;5004084;28;20689;-71
2021/01/14 01:19:20;;;;;;;2.63;2.43;;;;;;;-2.40;100.00;99588.78;5006042;28;20235;-70
2021/01/14 01:21:46;;;;;;;3.03;2.60;;;;;;;-2.40;100.00;99589.63;5006554;28;20200;-72
2021/01/14 01:24:12;;;;;;;3.70;2.63;;;;;;;-2.39;100.00;99596.47;5006318;28;20211;-71
2021/01/14 01:26:38;;;;;;;4.63;2.50;;;;;;;-2.37;100.00;99599.88;5003549;28;20355;-71
2021/01/14 01:29:04;;;;;;;4.37;2.37;;;;;;;-2.35;100.00;99598.19;5007921;28;20215;-71
2021/01/14 01:31:30;;;;;;;5.50;2.87;;;;;;;-2.35;100.00;99597.34;5005144;28;20208;-70
2021/01/14 01:33:56;;;;;;;3.80;2.90;;;;;;;-2.34;100.00;99594.81;5006097;28;20200;-73
2021/01/14 01:36:23;;;;;;;4.63;2.60;;;;;;;-2.33;100.00;99595.66;5005869;28;20205;-74
2021/01/14 01:38:49;;;;;;;4.37;2.87;;;;;;;-2.32;100.00;99602.50;5006885;28;20720;-75
2021/01/14 01:41:16;;;;;;;7.47;3.13;;;;;;;-2.34;100.00;99597.38;5005451;28;20251;-74
2021/01/14 01:43:42;;;;;;;4.57;2.47;;;;;;;-2.32;100.00;99598.22;5006568;28;20255;-74
2021/01/14 01:46:08;;;;;;;4.90;2.77;;;;;;;-2.32;100.00;99599.94;5002308;28;20671;-74
2021/01/14 01:48:34;;;;;;;3.07;2.40;;;;;;;-2.32;100.00;99597.38;5003466;28;20653;-74
2021/01/14 01:51:01;;;;;;;3.70;2.43;;;;;;;-2.31;100.00;99599.06;5003963;28;20216;-73
2021/01/14 01:53:30;;;;;;;4.17;2.80;;;;;;;-2.31;100.00;99589.72;4999229;28;20235;-74
2021/01/14 01:55:57;;;;;;;3.80;2.60;;;;;;;-2.32;100.00;99588.00;5002423;28;20220;-73
2021/01/14 01:58:25;;;;;;;2.70;2.30;;;;;;;-2.30;100.00;99585.47;5002595;28;20224;-73
2021/01/14 02:00:51;;;;;;;3.63;2.40;;;;;;;-2.29;100.00;99590.59;5008251;28;20224;-71
2021/01/14 02:03:17;;;;;;;5.47;2.70;;;;;;;-2.29;100.00;99595.72;5004430;28;20259;-73
2021/01/14 02:05:43;;;;;;;3.37;2.43;;;;;;;-2.29;100.00;99589.72;5003549;28;20542;-74
2021/01/14 02:08:19;;;;;;;2.67;2.37;;;;;;;-2.30;100.00;99590.59;5003531;28;20215;-71
2021/01/14 02:10:53;;;;;;;3.30;2.47;;;;;;;-2.30;100.00;99594.00;5009254;28;20219;-75
2021/01/14 02:13:26;;;;;;;2.73;2.13;;;;;;;-2.30;100.00;99596.53;5004223;28;20192;-74
2021/01/14 02:15:55;;;;;;;3.17;2.30;;;;;;;-2.30;100.00;99598.25;4999813;28;20211;-74
2021/01/14 02:18:21;;;;;;;2.90;2.10;;;;;;;-2.30;100.00;99605.91;5002208;28;20637;-72
2021/01/14 02:20:49;;;;;;;3.00;2.10;;;;;;;-2.30;100.00;99606.75;5006669;28;20216;-73
2021/01/14 02:23:22;;;;;;;4.20;2.27;;;;;;;-2.29;100.00;99600.81;5005022;28;20196;-74
2021/01/14 02:26:13;;;;;;;2.93;2.10;;;;;;;-2.30;100.00;99600.81;4992153;28;20200;-74
2021/01/14 02:28:41;;;;;;;2.30;2.10;;;;;;;-2.29;100.00;99605.03;5003604;28;20361;-71
2021/01/14 02:31:07;;;;;;;2.30;2.07;;;;;;;-2.28;100.00;99604.22;5001981;28;20584;-72
2021/01/14 02:33:33;;;;;;;3.40;1.70;;;;;;;-2.27;100.00;99605.91;5005146;28;20224;-71
2021/01/14 02:35:59;;;;;;;2.27;1.73;;;;;;;-2.29;100.00;99613.59;5004402;28;20279;-74
2021/01/14 02:38:25;;;;;;;2.20;1.80;;;;;;;-2.29;100.00;99608.47;5005263;28;20217;-74
2021/01/14 02:40:51;;;;;;;2.33;2.10;;;;;;;-2.26;100.00;99614.44;5005088;28;20849;-72
2021/01/14 02:43:18;;;;;;;2.20;1.77;;;;;;;-2.24;100.00;99617.88;5004776;28;20201;-73
2021/01/14 02:45:44;;;;;;;2.63;2.00;;;;;;;-2.27;100.00;99618.69;5004480;28;20702;-73
2021/01/14 02:48:13;;;;;;;3.20;2.17;;;;;;;-2.25;100.00;99627.25;5000530;28;20202;-74
2021/01/14 02:50:40;;;;;;;3.50;2.10;;;;;;;-2.24;100.00;99623.81;5007584;28;20275;-73
2021/01/14 02:53:08;;;;;;;1.93;1.73;;;;;;;-2.24;100.00;99625.53;5002476;28;20197;-74
2021/01/14 02:55:35;;;;;;;2.20;1.87;;;;;;;-2.23;100.00;99625.56;5007214;28;20205;-72
2021/01/14 02:58:01;;;;;;;4.33;1.87;;;;;;;-2.25;100.00;99629.78;4999689;28;20228;-74
2021/01/14 03:00:28;;;;;;;3.00;2.00;;;;;;;-2.23;100.00;99624.66;5006696;28;20610;-74
2021/01/14 03:02:54;;;;;;;1.80;1.63;;;;;;;-2.21;100.00;99638.34;5000286;28;20610;-73
2021/01/14 03:05:20;;;;;;;3.93;1.73;;;;;;;-2.20;100.00;99640.03;5008075;28;20204;-74
2021/01/14 03:07:45;;;;;;;4.07;1.90;;;;;;;-2.21;100.00;99641.75;5006863;28;20200;-74
2021/01/14 03:10:12;;;;;;;2.67;2.23;;;;;;;-2.19;100.00;99642.59;5009080;28;20216;-74
2021/01/14 03:12:37;;;;;;;2.90;1.77;;;;;;;-2.19;100.00;99645.16;5005460;28;20192;-74
2021/01/14 03:15:04;;;;;;;3.87;2.10;;;;;;;-2.19;100.00;99644.31;5007952;28;20219;-73
2021/01/14 03:17:34;;;;;;;3.23;1.90;;;;;;;-2.20;100.00;99648.56;5003927;28;20224;-71
2021/01/14 03:20:00;;;;;;;2.03;1.80;;;;;;;-2.19;100.00;99660.47;5006879;28;20247;-74
2021/01/14 03:22:28;;;;;;;2.40;1.73;;;;;;;-2.18;100.00;99653.66;5007568;28;20554;-74
2021/01/14 03:24:54;;;;;;;2.23;1.50;;;;;;;-2.18;100.00;99653.66;5009558;28;20211;-74
2021/01/14 03:27:20;;;;;;;1.60;1.50;;;;;;;-2.17;100.00;99661.34;5004157;28;20267;-70
2021/01/14 03:29:46;;;;;;;1.97;1.73;;;;;;;-2.16;100.00;99669.91;5012046;28;20224;-74
2021/01/14 03:32:12;;;;;;;1.70;1.60;;;;;;;-2.15;100.00;99675.00;5003839;28;20208;-71
2021/01/14 03:34:38;;;;;;;1.60;1.50;;;;;;;-2.15;100.00;99677.53;5007313;28;20216;-74
2021/01/14 03:37:04;;;;;;;1.83;1.60;;;;;;;-2.14;100.00;99674.16;5004840;28;20576;-74
2021/01/14 03:39:30;;;;;;;1.63;1.53;;;;;;;-2.13;100.00;99683.56;5008516;28;20545;-74
2021/01/14 03:41:58;;;;;;;2.43;1.50;;;;;;;-2.13;100.00;99691.22;5005454;28;20243;-72
2021/01/14 03:44:24;;;;;;;1.50;1.40;;;;;;;-2.13;100.00;99691.22;5007208;28;20208;-74
2021/01/14 03:46:51;;;;;;;3.90;1.50;;;;;;;-2.12;100.00;99694.63;5004183;28;20627;-73
2021/01/14 03:49:18;;;;;;;3.33;1.50;;;;;;;-2.12;100.00;99708.22;5008997;28;20736;-74
2021/01/14 03:51:46;;;;;;;3.43;1.60;;;;;;;-2.12;100.00;99705.69;5007385;28;20197;-74
2021/01/14 03:54:12;;;;;;;3.20;1.70;;;;;;;-2.10;100.00;99714.22;5006871;28;20208;-74
2021/01/14 03:56:39;;;;;;;2.53;1.90;;;;;;;-2.13;100.00;99714.19;5006606;28;20578;-73
2021/01/14 03:59:06;;;;;;;2.23;1.60;;;;;;;-2.11;100.00;99732.94;5000833;28;20612;-74
2021/01/14 04:01:32;;;;;;;1.43;1.17;;;;;;;-2.10;100.00;99738.91;5007980;28;20197;-74
2021/01/14 04:03:58;;;;;;;4.73;2.93;;;;;;;-2.10;100.00;99742.31;5008972;28;20267;-73
2021/01/14 04:06:30;;;;;;;3.63;3.03;;;;;;;-2.10;100.00;99755.09;5008504;28;20217;-72
2021/01/14 04:08:58;;;;;;;3.63;2.67;;;;;;;-2.09;100.00;99753.41;5006431;28;20235;-72
2021/01/14 04:11:24;;;;;;;2.50;2.20;;;;;;;-2.07;100.00;99766.19;5005158;28;20546;-74
2021/01/14 04:13:49;;;;;;;2.17;1.70;;;;;;;-2.06;100.00;99778.13;5007616;28;20284;-74
2021/01/14 04:16:15;;;;;;;1.80;1.67;;;;;;;-2.05;100.00;99793.47;5005071;28;20212;-73
2021/01/14 04:18:41;;;;;;;2.70;1.73;;;;;;;-2.04;100.00;99801.97;5008382;28;20776;-74
2021/01/14 04:21:07;;;;;;;1.67;1.47;;;;;;;-2.03;100.00;99808.81;5007348;28;20212;-74
2021/01/14 04:23:33;;;;;;;1.97;1.40;;;;;;;-2.02;100.00;99818.19;5004663;28;20255;-73
2021/01/14 04:25:59;;;;;;;1.80;1.60;;;;;;;-1.99;100.00;99823.34;5004514;28;20220;-74
2021/01/14 04:28:25;;;;;;;2.20;1.37;;;;;;;-2.00;100.00;99835.25;5007782;28;20252;-73
2021/01/14 04:30:51;;;;;;;1.80;1.30;;;;;;;-2.00;100.00;99840.38;5007350;28;20232;-74
2021/01/14 04:33:17;;;;;;;2.30;1.40;;;;;;;-1.98;100.00;99851.47;5001003;28;20280;-73
2021/01/14 04:35:44;;;;;;;3.43;1.93;;;;;;;-1.98;100.00;99863.38;5003950;28;20201;-73
2021/01/14 04:38:10;;;;;;;3.80;1.63;;;;;;;-1.99;100.00;99876.97;5001374;28;20239;-73
2021/01/14 04:40:36;;;;;;;4.13;1.60;;;;;;;-1.99;100.00;99882.94;5006974;28;20295;-74
2021/01/14 04:43:06;;;;;;;1.57;1.33;;;;;;;-1.99;100.00;99893.16;5007148;28;20217;-73
2021/01/14 04:45:32;;;;;;;2.83;1.80;;;;;;;-2.00;100.00;99894.03;5006730;28;20669;-74
2021/01/14 04:48:01;;;;;;;2.73;2.07;;;;;;;-2.01;100.00;99901.66;5005354;28;20211;-73
2021/01/14 04:50:27;;;;;;;2.80;1.83;;;;;;;-2.01;100.00;99909.31;5005405;28;20226;-73
2021/01/14 04:52:55;;;;;;;4.03;2.23;;;;;;;-2.01;100.00;99924.66;5004453;28;20255;-72
2021/01/14 04:55:25;;;;;;;3.00;1.63;;;;;;;-2.01;100.00;99930.63;5002057;28;20204;-73
2021/01/14 04:57:52;;;;;;;2.13;1.90;;;;;;;-2.00;100.00;99940.00;5004444;28;20228;-73
2021/01/14 05:00:24;;;;;;;3.40;2.37;;;;;;;-1.99;100.00;99949.38;5005736;28;20228;-74
2021/01/14 05:02:57;;;;;;;3.33;2.50;;;;;;;-1.99;100.00;99957.03;5020406;28;20674;-73
2021/01/14 05:05:24;;;;;;;2.60;2.17;;;;;;;-1.98;100.00;99969.00;5006454;28;20685;-73
2021/01/14 05:08:02;;;;;;;3.10;2.40;;;;;;;-1.98;100.00;99975.81;5007278;28;20554;-73
2021/01/14 05:10:31;;;;;;;3.70;2.63;;;;;;;-1.98;100.00;99978.34;5016435;28;20228;-73
2021/01/14 05:12:57;;;;;;;3.63;2.33;;;;;;;-1.98;100.00;99978.34;5007331;28;20685;-74
2021/01/14 05:15:25;;;;;;;3.03;2.13;;;;;;;-1.97;100.00;100003.94;5004418;28;20258;-74
2021/01/14 05:17:51;;;;;;;2.63;2.00;;;;;;;-1.96;100.00;100007.34;5002152;28;20213;-74
2021/01/14 05:20:18;;;;;;;4.37;2.27;;;;;;;-1.97;100.00;100021.81;5003811;28;20239;-73
2021/01/14 05:22:47;;;;;;;2.67;2.30;;;;;;;-1.94;100.00;100021.00;5005785;28;20216;-73
2021/01/14 05:25:13;;;;;;;3.47;2.00;;;;;;;-1.93;100.00;100028.69;5007662;28;20207;-74
2021/01/14 05:27:39;;;;;;;4.17;2.30;;;;;;;-1.93;100.00;100032.94;5004898;28;20678;-73
2021/01/14 05:30:07;;;;;;;2.30;1.87;;;;;;;-1.93;100.00;100033.81;5005806;28;20275;-74
2021/01/14 05:32:38;;;;;;;3.40;2.53;;;;;;;-1.90;100.00;100040.63;5007023;28;20203;-73
2021/01/14 05:35:06;;;;;;;2.63;2.00;;;;;;;-1.89;100.00;100046.63;5005017;28;20209;-73
2021/01/14 05:37:34;;;;;;;2.90;2.30;;;;;;;-1.88;100.00;100053.44;5006141;28;20224;-74
2021/01/14 05:40:01;;;;;;;5.23;2.57;;;;;;;-1.88;100.00;100062.00;5004059;28;20228;-73
2021/01/14 05:42:27;;;;;;;3.57;2.80;;;;;;;-1.86;100.00;100072.25;5003440;28;20597;-73
2021/01/14 05:44:53;;;;;;;5.77;3.50;;;;;;;-1.86;100.00;100073.09;5007043;28;20658;-72
2021/01/14 05:47:23;;;;;;;3.67;2.57;;;;;;;-1.83;100.00;100088.47;5006738;28;20207;-74
2021/01/14 05:49:55;;;;;;;4.33;2.90;;;;;;;-1.84;100.00;100099.53;5007293;28;20224;-73
2021/01/14 05:52:24;;;;;;;4.57;3.33;;;;;;;-1.84;100.00;100099.53;5005383;28;20209;-73
2021/01/14 05:54:58;;;;;;;5.17;3.60;;;;;;;-1.82;100.00;100105.50;5002006;28;20212;-74
2021/01/14 05:57:29;;;;;;;5.27;3.53;;;;;;;-1.82;100.00;100108.06;5003787;28;20204;-73
2021/01/14 05:59:55;;;;;;;5.17;3.87;;;;;;;-1.80;100.00;100114.06;5001733;28;20854;-73
2021/01/14 06:02:31;;;;;;;9.07;4.33;;;;;;;-1.80;100.00;100126.00;5002940;28;20225;-73
2021/01/14 06:04:59;;;;;;;5.00;3.00;;;;;;;-1.78;100.00;100137.09;5003440;28;20204;-72
2021/01/14 06:07:38;;;;;;;6.37;4.30;;;;;;;-1.78;100.00;100134.53;5012139;28;20208;-73
2021/01/14 06:10:05;;;;;;;6.33;3.70;;;;;;;-1.79;100.00;100141.34;5003366;28;20220;-74
2021/01/14 06:12:31;;;;;;;5.30;3.47;;;;;;;-1.78;100.00;100148.16;5000157;28;20219;-74
2021/01/14 06:14:57;;;;;;;5.40;3.23;;;;;;;-1.78;100.00;100150.72;5005155;28;20200;-73
2021/01/14 06:17:32;;;;;;;7.07;3.50;;;;;;;-1.77;100.00;100162.69;5004927;28;20912;-74
2021/01/14 06:20:07;;;;;;;4.43;3.33;;;;;;;-1.76;100.00;100159.31;5003666;28;20224;-72
2021/01/14 06:22:35;;;;;;;6.00;3.80;;;;;;;-1.76;100.00;100161.88;5004007;28;20268;-73
2021/01/14 06:25:04;;;;;;;6.40;3.67;;;;;;;-1.74;100.00;100165.28;5006938;28;20204;-73
2021/01/14 06:27:30;;;;;;;4.17;3.07;;;;;;;-1.73;100.00;100171.25;5003453;28;20203;-73
2021/01/14 06:30:00;;;;;;;6.47;4.00;;;;;;;-1.72;100.00;100188.34;5005776;28;20248;-73
2021/01/14 06:32:27;;;;;;;5.13;3.00;;;;;;;-1.73;100.00;100186.59;5005230;28;20280;-73
2021/01/14 06:34:53;;;;;;;5.90;3.63;;;;;;;-1.72;100.00;100208.78;5002888;28;20209;-73
2021/01/14 06:37:22;;;;;;;5.40;3.50;;;;;;;-1.72;100.00;100219.84;5005257;28;20268;-73
2021/01/14 06:39:49;;;;;;;6.40;3.63;;;;;;;-1.69;100.00;100225.84;5005360;28;20232;-74
2021/01/14 06:42:23;;;;;;;7.97;3.83;;;;;;;-1.69;100.00;100231.81;5006161;28;20275;-74
2021/01/14 06:44:51;;;;;;;9.23;4.30;;;;;;;-1.68;100.00;100233.56;5007017;28;20213;-73
2021/01/14 06:47:30;;;;;;;9.47;4.07;;;;;;;-1.65;100.00;100242.97;5005059;28;20538;-74
2021/01/14 06:50:16;;;;;;;7.50;4.30;;;;;;;-1.65;100.00;100251.50;5010080;28;20593;-74
2021/01/14 06:52:46;;;;;;;8.13;4.50;;;;;;;-1.63;100.00;100256.66;5007117;28;20193;-72
2021/01/14 06:55:14;;;;;;;9.73;4.47;;;;;;;-1.61;100.00;100266.06;5002198;28;20243;-73
2021/01/14 06:57:42;;;;;;;8.60;4.80;;;;;;;-1.60;100.00;100261.81;5009633;28;20271;-73
2021/01/14 07:00:10;;;;;;;7.83;4.40;;;;;;;-1.59;100.00;100271.22;5007830;28;20721;-73
2021/01/14 07:02:53;;;;;;;6.87;4.13;;;;;;;-1.57;100.00;100279.75;5009785;28;20201;-73
2021/01/14 07:05:26;;;;;;;8.50;4.73;;;;;;;-1.57;100.00;100289.97;5007274;28;20207;-72
2021/01/14 07:08:10;;;;;;;6.47;4.00;;;;;;;-1.56;100.00;100294.28;5006489;28;20651;-74
2021/01/14 07:10:44;;;;;;;5.87;3.63;;;;;;;-1.56;100.00;100302.81;5009164;28;20232;-74
2021/01/14 07:13:12;;;;;;;9.93;4.23;;;;;;;-1.54;100.00;100310.50;5009057;28;20207;-73
2021/01/14 07:15:45;;;;;;;11.30;4.77;;;;;;;-1.53;100.00;100314.75;5009022;28;20205;-74
2021/01/14 07:18:26;;;;;;;8.67;4.73;;;;;;;-1.52;100.00;100326.72;5010724;28;20286;-73
2021/01/14 07:20:53;;;;;;;8.80;4.70;;;;;;;-1.50;100.00;100327.63;5011847;28;20228;-72
2021/01/14 07:23:21;;;;;;;8.33;4.73;;;;;;;-1.47;100.00;100327.69;5017567;28;20209;-73
2021/01/14 07:25:47;;;;;;;10.03;4.90;;;;;;;-1.46;100.00;100337.09;5006810;28;20208;-73
2021/01/14 07:28:13;;;;;;;8.87;4.83;;;;;;;-1.41;100.00;100347.38;5007113;28;20203;-73
2021/01/14 07:30:39;;;;;;;9.30;4.77;;;;;;;-1.40;100.00;100356.78;5006488;28;20236;-73
2021/01/14 07:33:05;;;;;;;10.37;5.17;;;;;;;-1.38;100.00;100360.22;5003621;28;20634;-73
2021/01/14 07:35:42;;;;;;;8.13;5.00;;;;;;;-1.37;100.00;100367.94;5009291;28;20737;-73
2021/01/14 07:38:10;;;;;;;10.50;5.07;;;;;;;-1.35;100.00;100383.31;5004620;28;20773;-73
2021/01/14 07:40:38;;;;;;;8.13;4.60;;;;;;;-1.33;100.00;100382.50;5004946;28;20854;-73
2021/01/14 07:43:06;;;;;;;9.57;5.60;;;;;;;-1.30;100.00;100389.38;5004679;28;20189;-74
2021/01/14 07:45:33;;;;;;;12.60;6.07;;;;;;;-1.28;100.00;100395.38;5007080;28;20200;-73
2021/01/14 07:48:18;;;;;;;9.70;5.27;;;;;;;-1.26;100.00;100403.94;5010141;28;20208;-73
2021/01/14 07:50:53;;;;;;;9.07;5.10;;;;;;;-1.23;100.00;100414.25;5007229;28;20224;-74
2021/01/14 07:53:20;;;;;;;10.07;5.83;;;;;;;-1.21;100.00;100415.13;5006396;28;20195;-74
2021/01/14 07:55:47;;;;;;;10.90;5.70;;;;;;;-1.20;100.00;100419.41;5002635;28;20861;-73
2021/01/14 07:58:24;;;;;;;10.30;6.07;;;;;;;-1.18;100.00;100427.97;5003198;28;20312;-73
2021/01/14 08:01:00;;;;;;;8.70;5.43;;;;;;;-1.16;100.00;100438.25;5007248;28;20324;-73
2021/01/14 08:03:32;;;;;;;8.93;5.60;;;;;;;-1.13;100.00;100445.97;5005581;28;20291;-72
2021/01/14 08:05:59;;;;;;;9.47;5.10;;;;;;;-1.10;100.00;100448.59;5006160;28;20200;-72
2021/01/14 08:08:30;;;;;;;9.97;5.67;;;;;;;-1.09;100.00;100455.44;5009678;28;20228;-74
2021/01/14 08:11:13;;;;;;;11.37;5.67;;;;;;;-1.07;100.00;100463.13;5005479;28;20583;-73
2021/01/14 08:14:02;;;;;;;11.37;5.80;;;;;;;-1.05;100.00;100464.03;5014907;28;20211;-73
2021/01/14 08:16:33;;;;;;;13.07;7.10;;;;;;;-1.03;100.00;100476.00;5001752;28;20266;-74
2021/01/14 08:19:17;;;;;;;10.70;5.90;;;;;;;-0.99;100.00;100488.03;5007656;28;20213;-74
2021/01/14 08:21:43;;;;;;;14.10;6.47;;;;;;;-0.96;100.00;100497.47;5004711;28;20778;-72
2021/01/14 08:24:10;;;;;;;11.33;5.90;;;;;;;-0.96;100.00;100507.72;5005183;28;20207;-73
2021/01/14 08:26:59;;;;;;;11.63;6.57;;;;;;;-0.93;100.00;100519.69;5004955;28;20602;-72
2021/01/14 08:29:42;;;;;;;12.00;6.40;;;;;;;-0.92;100.00;100522.28;5019744;28;20224;-73
2021/01/14 08:32:31;;;;;;;13.70;6.27;;;;;;;-0.89;100.00;100532.59;5007097;28;20220;-73
2021/01/14 08:34:58;;;;;;;13.83;6.40;;;;;;;-0.87;100.00;100535.19;5009330;28;20561;-73
2021/01/14 08:37:29;;;;;;;10.83;6.77;;;;;;;-0.86;100.00;100542.91;5004337;28;20221;-74
2021/01/14 08:39:59;;;;;;;13.20;6.60;;;;;;;-0.86;100.00;100547.13;5007048;28;20496;-74
2021/01/14 08:42:34;;;;;;;16.40;7.70;;;;;;;-0.81;100.00;100553.19;5005831;28;20209;-73
2021/01/14 08:45:10;;;;;;;14.60;6.73;;;;;;;-0.78;100.00;100558.38;5003706;28;20296;-73
2021/01/14 08:47:56;;;;;;;13.20;7.13;;;;;;;-0.79;100.00;100560.09;5005228;28;20258;-73
2021/01/14 08:50:43;;;;;;;12.23;6.77;;;;;;;-0.72;100.00;100563.63;5007122;28;20696;-73
2021/01/14 08:53:11;;;;;;;13.17;6.77;;;;;;;-0.68;100.00;100567.97;5002380;28;20205;-73
2021/01/14 08:55:37;;;;;;;14.13;6.93;;;;;;;-0.65;100.00;100577.41;5011771;28;20536;-73
2021/01/14 08:58:06;;;;;;;12.67;6.97;;;;;;;-0.62;100.00;100582.59;5002601;28;20657;-72
2021/01/14 09:00:33;;;;;;;14.73;7.73;;;;;;;-0.61;100.00;100584.31;5009189;28;20686;-73
2021/01/14 09:02:59;;;;;;;15.83;7.40;;;;;;;-0.53;100.00;100584.47;5004178;28;20197;-72
2021/01/14 09:05:25;;;;;;;13.77;8.10;;;;;;;-0.46;100.00;100599.09;5011994;28;20254;-73
2021/01/14 09:08:05;;;;;;;14.17;7.37;;;;;;;-0.56;100.00;100603.22;5005078;28;20216;-73
2021/01/14 09:10:55;;;;;;;14.47;8.00;;;;;;;-0.55;100.00;100612.59;5003272;28;20243;-74
2021/01/14 09:13:23;;;;;;;14.03;8.20;;;;;;;-0.58;100.00;100617.69;4981970;28;20510;-73
2021/01/14 09:15:51;;;;;;;14.00;7.90;;;;;;;-0.62;100.00;100619.28;5008669;28;20283;-73
2021/01/14 09:18:18;;;;;;;12.83;7.27;;;;;;;-0.63;100.00;100622.72;5003506;28;20225;-73
2021/01/14 09:20:52;;;;;;;14.63;8.10;;;;;;;-0.61;100.00;100633.84;5006675;28;20224;-72
2021/01/14 09:23:20;;;;;;;15.10;8.77;;;;;;;-0.56;100.00;100649.31;5006305;28;20649;-73
2021/01/14 09:25:48;;;;;;;15.03;8.00;;;;;;;-0.57;100.00;100650.97;5012239;28;20328;-72
2021/01/14 09:28:15;;;;;;;13.93;8.03;;;;;;;-0.61;100.00;100664.56;5003937;28;20216;-73
2021/01/14 09:30:42;;;;;;;15.90;8.30;;;;;;;-0.57;100.00;100674.03;5005126;28;20216;-73
2021/01/14 09:33:08;;;;;;;15.93;8.40;;;;;;;-0.57;100.00;100683.44;5002907;28;20208;-74
2021/01/14 09:35:34;;;;;;;15.10;8.87;;;;;;;-0.61;100.00;100674.81;5006355;28;20318;-74
2021/01/14 09:38:00;;;;;;;22.23;10.63;;;;;;;-0.59;100.00;100685.09;5005673;28;20228;-74
2021/01/14 09:40:26;;;;;;;16.97;9.57;;;;;;;-0.61;100.00;100686.78;5005786;28;20219;-75
2021/01/14 09:42:52;;;;;;;14.43;8.40;;;;;;;-0.53;100.00;100692.03;5004548;28;20688;-74
2021/01/14 09:45:20;;;;;;;17.60;8.83;;;;;;;-0.55;100.00;100699.69;5007606;28;20204;-74
2021/01/14 09:47:48;;;;;;;16.93;9.17;;;;;;;-0.51;100.00;100698.94;5004270;28;20329;-73
2021/01/14 09:50:15;;;;;;;12.93;7.67;;;;;;;-0.46;100.00;100709.25;5003556;28;20217;-74
2021/01/14 09:52:41;;;;;;;14.90;7.90;;;;;;;-0.36;100.00;100710.31;5006848;28;20215;-74
2021/01/14 09:55:13;;;;;;;13.30;6.80;;;;;;;-0.30;100.00;100716.44;5005044;28;20253;-74
2021/01/14 09:57:46;;;;;;;15.97;6.97;;;;;;;-0.32;99.68;100720.63;5001442;28;20617;-74
2021/01/14 10:00:19;;;;;;;13.00;7.17;;;;;;;-0.33;99.69;100724.06;5007824;28;20220;-73
2021/01/14 10:02:50;;;;;;;10.90;7.07;;;;;;;-0.34;99.48;100724.00;5001762;28;20597;-74
2021/01/14 10:05:20;;;;;;;14.80;7.33;;;;;;;-0.23;99.88;100727.63;5002629;28;21654;-73
2021/01/14 10:07:49;;;;;;;10.57;6.43;;;;;;;-0.24;99.51;100726.78;5007077;28;20201;-74
2021/01/14 10:10:15;;;;;;;13.67;7.60;;;;;;;-0.28;99.55;100734.38;5005035;28;20594;-72
2021/01/14 10:12:41;;;;;;;11.77;6.80;;;;;;;-0.29;99.51;100742.91;5006823;28;20272;-73
2021/01/14 10:15:09;;;;;;;10.67;6.47;;;;;;;-0.32;99.46;100741.13;5005835;28;20227;-72
2021/01/14 10:17:37;;;;;;;10.27;6.07;;;;;;;-0.38;99.13;100749.56;5008897;28;20204;-72
2021/01/14 10:20:05;;;;;;;10.57;5.97;;;;;;;-0.42;99.17;100759.75;5009537;28;20253;-74
2021/01/14 10:22:30;;;;;;;12.63;6.27;;;;;;;-0.44;99.66;100769.94;5012022;28;20266;-73
2021/01/14 10:25:08;;;;;;;9.07;5.80;;;;;;;-0.40;99.39;100768.31;5007400;28;20246;-72
2021/01/14 10:27:34;;;;;;;8.93;5.37;;;;;;;-0.46;98.96;100786.09;5004275;28;20204;-74
2021/01/14 10:30:16;;;;;;;9.67;6.00;;;;;;;-0.43;99.34;100788.75;5007608;28;20229;-73
2021/01/14 10:32:42;;;;;;;9.10;5.80;;;;;;;-0.47;98.89;100792.94;5005307;28;20569;-74
2021/01/14 10:35:21;;;;;;;11.13;6.10;;;;;;;-0.47;98.92;100795.50;5008568;28;20250;-74
2021/01/14 10:37:48;;;;;;;16.67;8.10;;;;;;;-0.45;98.32;100792.97;5011895;28;20208;-74
2021/01/14 10:40:18;;;;;;;31.43;14.10;;;;;;;-0.44;97.64;100804.94;5005512;28;20233;-73
2021/01/14 10:42:48;;;;;;;12.53;7.10;;;;;;;-0.41;97.76;100812.69;5014361;28;20208;-73
2021/01/14 10:45:22;;;;;;;11.90;6.97;;;;;;;-0.39;97.32;100811.91;5002330;28;20208;-74
2021/01/14 10:47:48;;;;;;;10.67;6.37;;;;;;;-0.35;96.98;100815.41;5012374;28;20795;-73
2021/01/14 10:50:23;;;;;;;11.83;6.63;;;;;;;-0.37;96.57;100814.47;5008298;28;20675;-73
2021/01/14 10:52:56;;;;;;;13.83;6.93;;;;;;;-0.29;96.74;100812.09;5005305;28;20283;-73
2021/01/14 10:55:22;;;;;;;11.77;6.77;;;;;;;-0.33;95.34;100816.28;5006919;28;20196;-73
2021/01/14 10:57:48;;;;;;;16.50;8.70;;;;;;;-0.40;95.45;100810.16;5002554;28;20284;-73
2021/01/14 11:00:15;;;;;;;13.20;6.67;;;;;;;-0.36;96.26;100816.22;5003150;28;20728;-74
2021/01/14 11:02:42;;;;;;;13.20;6.70;;;;;;;-0.37;95.89;100814.47;5008954;28;20208;-73
2021/01/14 11:05:09;;;;;;;11.27;6.53;;;;;;;-0.33;95.78;100816.28;5003734;28;20214;-73
2021/01/14 11:07:36;;;;;;;11.33;6.03;;;;;;;-0.32;95.31;100817.16;5008493;28;20797;-74
2021/01/14 11:10:06;;;;;;;11.33;5.97;;;;;;;-0.30;94.93;100818.03;5011343;28;20646;-73
2021/01/14 11:12:32;;;;;;;9.77;5.97;;;;;;;-0.31;95.27;100812.06;5006216;28;20208;-72
2021/01/14 11:14:58;;;;;;;11.60;6.70;;;;;;;-0.25;95.30;100812.16;5004998;28;20720;-73
2021/01/14 11:17:25;;;;;;;10.73;6.40;;;;;;;-0.25;94.91;100817.31;5010937;28;20805;-73
2021/01/14 11:19:51;;;;;;;11.60;6.23;;;;;;;-0.14;95.47;100819.22;5006297;28;20618;-73
2021/01/14 11:22:17;;;;;;;10.00;6.30;;;;;;;-0.17;95.79;100824.31;5002150;28;20633;-74
2021/01/14 11:24:44;;;;;;;10.97;5.67;;;;;;;-0.24;95.16;100829.28;5006698;28;20209;-73
2021/01/14 11:27:10;;;;;;;17.37;8.57;;;;;;;-0.23;95.61;100820.78;5008024;28;20247;-72
2021/01/14 11:29:35;;;;;;;18.97;7.93;;;;;;;-0.29;95.10;100819.78;5008762;28;20225;-74